Time;durP1;ratioP1;P1;durP2;ratioP2;P2;SDS_P1;SDS_P2;PMS_P1;PMS_P2;Temp;Humidity;BMP_temperature;BMP_pressure;BME280_temperature;BME280_humidity;BME280_pressure;Samples;Min_cycle;Max_cycle;Signal;HPM_P1;HPM_P2
2022/07/13 00:01:09;;;;;;;10.87;5.33;;;;;;;22.26;59.56;102027.47;5050266;28;20036;-78
2022/07/13 00:03:34;;;;;;;8.63;5.05;;;;;;;22.25;59.30;102031.19;5048474;28;20311;-78
2022/07/13 00:05:59;;;;;;;8.50;4.80;;;;;;;22.20;59.89;102042.53;5053762;28;20033;-78
2022/07/13 00:08:25;;;;;;;5.95;4.90;;;;;;;22.22;58.99;102028.84;5053567;28;20025;-78
2022/07/13 00:10:50;;;;;;;10.65;5.78;;;;;;;22.20;58.68;102014.59;5051742;28;20356;-78
2022/07/13 00:13:24;;;;;;;5.73;5.03;;;;;;;22.16;58.87;102006.81;5053176;28;20033;-78
2022/07/13 00:15:50;;;;;;;9.43;5.00;;;;;;;22.14;59.02;101999.88;5052856;28;20358;-78
2022/07/13 00:18:15;;;;;;;7.38;5.03;;;;;;;22.12;57.85;102000.03;5053159;28;20112;-78
2022/07/13 00:20:40;;;;;;;7.35;4.32;;;;;;;22.10;57.58;101993.97;5053879;28;20028;-77
2022/07/13 00:23:05;;;;;;;5.50;4.28;;;;;;;22.09;57.87;101996.81;5053131;28;20107;-77
2022/07/13 00:25:31;;;;;;;6.90;5.00;;;;;;;22.09;57.11;101983.31;5054479;28;20441;-78
2022/07/13 00:27:56;;;;;;;5.13;4.25;;;;;;;22.08;57.02;101985.16;5054920;28;20274;-77
2022/07/13 00:30:21;;;;;;;7.25;4.70;;;;;;;22.04;57.40;101982.97;5051502;28;20093;-77
2022/07/13 00:32:47;;;;;;;6.85;4.40;;;;;;;22.03;57.52;101990.19;5048764;28;20035;-78
2022/07/13 00:35:12;;;;;;;6.20;4.57;;;;;;;22.05;57.49;101987.34;5043497;28;20025;-77
2022/07/13 00:37:37;;;;;;;7.72;4.13;;;;;;;22.02;57.77;101976.88;5051632;28;20025;-77
2022/07/13 00:40:03;;;;;;;6.72;4.55;;;;;;;21.98;57.61;101971.78;5052887;28;20031;-78
2022/07/13 00:42:29;;;;;;;5.25;4.60;;;;;;;21.99;57.45;101964.50;5052547;28;20044;-78
2022/07/13 00:44:54;;;;;;;5.30;4.50;;;;;;;21.99;56.91;101956.38;5046735;28;20021;-77
2022/07/13 00:47:19;;;;;;;7.75;4.32;;;;;;;21.97;56.69;101951.16;5052803;28;20037;-77
2022/07/13 00:49:45;;;;;;;6.53;4.53;;;;;;;21.96;56.34;101946.75;5052439;28;20021;-78
2022/07/13 00:52:10;;;;;;;5.00;4.60;;;;;;;21.96;56.70;101959.44;5103703;22;20135;-48
2022/07/13 00:54:35;;;;;;;4.78;4.13;;;;;;;21.95;56.63;101950.47;5071544;28;20052;-50
2022/07/13 00:57:01;;;;;;;8.18;4.53;;;;;;;21.92;56.10;101953.50;5065591;28;20118;-47
2022/07/13 00:59:27;;;;;;;5.10;4.20;;;;;;;21.92;56.40;101952.66;5071776;28;20024;-49
2022/07/13 01:01:54;;;;;;;6.40;4.18;;;;;;;21.89;56.43;101945.72;5067381;28;20070;-48
2022/07/13 01:04:25;;;;;;;5.03;4.10;;;;;;;21.89;56.20;101947.59;5072574;28;20029;-48
2022/07/13 01:06:53;;;;;;;4.35;3.95;;;;;;;21.89;55.81;101948.41;5072937;28;20063;-48
2022/07/13 01:09:19;;;;;;;4.40;3.90;;;;;;;21.89;56.09;101944.88;5062141;28;20402;-47
2022/07/13 01:11:45;;;;;;;6.82;4.20;;;;;;;21.87;55.63;101949.63;5065655;28;20295;-48
2022/07/13 01:14:11;;;;;;;4.28;3.42;;;;;;;21.87;55.88;101952.31;5072407;28;20028;-48
2022/07/13 01:16:37;;;;;;;7.20;3.72;;;;;;;21.84;56.20;101944.53;5055370;28;20091;-48
2022/07/13 01:19:04;;;;;;;5.00;3.80;;;;;;;21.86;55.60;101947.91;5073151;28;20071;-47
2022/07/13 01:21:29;;;;;;;5.70;3.55;;;;;;;21.85;55.17;101941.66;5073471;28;20067;-47
2022/07/13 01:23:54;;;;;;;5.88;3.65;;;;;;;21.84;55.18;101939.13;5054725;28;20488;-47
2022/07/13 01:26:20;;;;;;;6.03;3.63;;;;;;;21.85;54.75;101935.38;5064527;28;20036;-47
2022/07/13 01:28:45;;;;;;;8.95;4.00;;;;;;;21.85;54.34;101935.38;5073379;28;20020;-49
2022/07/13 01:31:11;;;;;;;4.45;3.05;;;;;;;21.83;55.31;101932.84;5073241;28;20162;-48
2022/07/13 01:33:36;;;;;;;4.38;3.50;;;;;;;21.82;55.24;101936.59;5072944;28;20043;-49
2022/07/13 01:36:01;;;;;;;4.45;3.60;;;;;;;21.80;54.79;101939.44;5073888;28;20123;-48
2022/07/13 01:38:27;;;;;;;4.05;3.40;;;;;;;21.80;54.51;101938.59;5072695;28;20032;-48
2022/07/13 01:40:52;;;;;;;5.97;3.50;;;;;;;21.78;54.89;101935.19;5072488;28;20028;-48
2022/07/13 01:43:23;;;;;;;5.53;3.20;;;;;;;21.78;54.91;101930.66;5073090;28;20063;-48
2022/07/13 01:45:49;;;;;;;6.10;3.17;;;;;;;21.76;54.37;101929.94;5075960;28;20025;-47
2022/07/13 01:48:14;;;;;;;5.33;3.03;;;;;;;21.74;54.65;101928.44;5076979;28;20374;-48
2022/07/13 01:50:39;;;;;;;4.10;3.22;;;;;;;21.73;54.91;101932.16;5058880;28;20279;-47
2022/07/13 01:53:05;;;;;;;4.03;3.17;;;;;;;21.71;54.55;101935.00;5076673;28;20052;-49
2022/07/13 01:55:30;;;;;;;6.20;3.50;;;;;;;21.70;54.58;101933.34;5062198;28;20377;-49
2022/07/13 01:57:59;;;;;;;5.70;3.77;;;;;;;21.70;54.42;101927.06;5049649;28;20640;-47
2022/07/13 02:00:25;;;;;;;6.00;3.40;;;;;;;21.67;54.76;101928.25;5062593;28;20275;-50
2022/07/13 02:02:51;;;;;;;3.60;3.13;;;;;;;21.66;54.66;101928.41;5077089;28;20108;-49
2022/07/13 02:05:17;;;;;;;4.68;2.90;;;;;;;21.65;54.59;101922.16;5072545;28;20116;-49
2022/07/13 02:07:43;;;;;;;4.00;3.40;;;;;;;21.64;55.02;101922.34;5076504;28;20024;-48
2022/07/13 02:10:10;;;;;;;4.60;3.38;;;;;;;21.59;55.21;101915.56;5076478;28;20031;-50
2022/07/13 02:12:35;;;;;;;4.85;3.35;;;;;;;21.60;55.08;101911.84;5077381;28;20428;-48
2022/07/13 02:15:00;;;;;;;3.90;3.33;;;;;;;21.59;54.74;101909.31;5077229;28;20029;-50
2022/07/13 02:17:26;;;;;;;4.72;3.00;;;;;;;21.60;55.06;101905.59;5071418;28;20059;-49
2022/07/13 02:19:52;;;;;;;7.20;3.50;;;;;;;21.57;55.42;101898.66;5077131;28;20515;-46
2022/07/13 02:22:17;;;;;;;5.95;3.30;;;;;;;21.55;55.24;101895.28;5059345;28;20367;-48
2022/07/13 02:24:43;;;;;;;4.82;3.50;;;;;;;21.54;55.52;101903.53;5076511;28;20147;-48
2022/07/13 02:27:08;;;;;;;7.68;3.55;;;;;;;21.51;55.35;101902.00;5076629;28;20021;-49
2022/07/13 02:29:34;;;;;;;7.85;3.60;;;;;;;21.51;55.36;101898.47;5075899;28;20427;-50
2022/07/13 02:31:59;;;;;;;4.85;3.28;;;;;;;21.50;55.92;101894.94;5070940;28;20068;-50
2022/07/13 02:34:27;;;;;;;4.85;3.20;;;;;;;21.48;55.79;101883.41;5058189;28;20032;-48
2022/07/13 02:36:53;;;;;;;7.22;3.90;;;;;;;21.48;54.87;101880.69;5076889;28;20027;-46
2022/07/13 02:39:19;;;;;;;4.80;3.05;;;;;;;21.47;55.32;101887.13;5072616;28;20110;-45
2022/07/13 02:41:44;;;;;;;6.07;3.72;;;;;;;21.45;55.81;101886.44;5078189;28;20024;-45
2022/07/13 02:44:09;;;;;;;3.58;3.28;;;;;;;21.45;55.48;101886.44;5080450;28;20036;-46
2022/07/13 02:46:35;;;;;;;4.50;3.40;;;;;;;21.43;56.03;101883.88;5069236;28;20043;-46
2022/07/13 02:49:00;;;;;;;6.43;3.60;;;;;;;21.44;55.38;101855.00;5071401;28;20369;-46
2022/07/13 02:51:25;;;;;;;5.55;3.17;;;;;;;21.46;55.39;101869.19;5075624;28;20287;-45
2022/07/13 02:53:50;;;;;;;7.53;3.93;;;;;;;21.47;55.96;101878.13;5081160;28;20040;-46
2022/07/13 02:56:16;;;;;;;6.50;3.10;;;;;;;21.46;56.12;101879.16;5079014;28;20310;-46
2022/07/13 02:58:42;;;;;;;5.70;3.35;;;;;;;21.41;56.83;101875.06;5078854;28;20397;-46
2022/07/13 03:01:07;;;;;;;7.22;3.28;;;;;;;21.42;56.22;101875.94;5067605;28;20477;-50
2022/07/13 03:03:32;;;;;;;4.05;3.17;;;;;;;21.41;56.69;101868.84;5073775;28;20036;-46
2022/07/13 03:05:58;;;;;;;4.47;3.10;;;;;;;21.39;57.01;101871.69;5061896;28;20028;-46
2022/07/13 03:08:23;;;;;;;5.30;3.20;;;;;;;21.37;57.03;101881.00;5080234;28;20687;-46
2022/07/13 03:10:48;;;;;;;5.18;3.50;;;;;;;21.34;56.68;101878.63;5079776;28;20027;-46
2022/07/13 03:13:14;;;;;;;7.53;3.63;;;;;;;21.33;57.57;101876.91;5079583;28;20032;-46
2022/07/13 03:15:39;;;;;;;8.25;4.03;;;;;;;21.32;57.19;101880.63;5080556;28;20024;-46
2022/07/13 03:18:04;;;;;;;7.27;3.80;;;;;;;21.31;57.56;101881.63;5079787;28;20035;-46
2022/07/13 03:20:29;;;;;;;5.57;3.40;;;;;;;21.30;57.87;101877.22;5077968;28;20373;-46
2022/07/13 03:22:55;;;;;;;4.80;3.28;;;;;;;21.29;57.67;101870.16;5075690;28;20055;-47
2022/07/13 03:25:20;;;;;;;6.90;3.58;;;;;;;21.30;57.16;101871.81;5078261;28;20086;-47
2022/07/13 03:27:45;;;;;;;6.27;3.50;;;;;;;21.29;57.13;101868.28;5077170;28;20040;-46
2022/07/13 03:30:11;;;;;;;6.63;3.60;;;;;;;21.28;57.47;101871.16;5078438;28;20343;-46
2022/07/13 03:32:36;;;;;;;7.37;3.37;;;;;;;21.27;57.78;101864.91;5078068;28;20454;-48
2022/07/13 03:35:01;;;;;;;8.80;3.87;;;;;;;21.24;57.86;101866.06;5078325;28;20772;-48
2022/07/13 03:37:26;;;;;;;12.60;4.07;;;;;;;21.25;57.90;101864.25;5077923;28;20346;-48
2022/07/13 03:39:52;;;;;;;11.18;4.55;;;;;;;21.24;57.54;101863.38;5078100;28;20286;-47
2022/07/13 03:42:17;;;;;;;16.93;4.53;;;;;;;21.20;58.41;101862.00;5076534;28;20462;-48
2022/07/13 03:44:42;;;;;;;14.95;4.35;;;;;;;21.22;57.72;101873.50;5076112;28;20299;-49
2022/07/13 03:47:08;;;;;;;14.75;4.70;;;;;;;21.21;58.09;101860.16;5076673;28;20013;-46
2022/07/13 03:49:33;;;;;;;12.13;4.27;;;;;;;21.19;57.85;101860.31;5072168;28;20035;-49
2022/07/13 03:51:58;;;;;;;10.68;4.15;;;;;;;21.19;57.86;101863.00;5075867;28;20422;-47
2022/07/13 03:54:23;;;;;;;8.10;3.70;;;;;;;21.20;57.77;101866.56;5077191;28;20075;-46
2022/07/13 03:56:49;;;;;;;10.63;3.60;;;;;;;21.19;57.66;101857.59;5058893;28;20016;-46
2022/07/13 03:59:14;;;;;;;8.90;3.73;;;;;;;21.21;57.43;101863.69;5071243;28;20387;-46
2022/07/13 04:01:40;;;;;;;8.27;3.78;;;;;;;21.22;57.93;101854.59;5069490;28;20286;-47
2022/07/13 04:04:06;;;;;;;8.40;3.63;;;;;;;21.21;57.81;101863.69;5065058;28;20029;-46
2022/07/13 04:06:31;;;;;;;10.48;3.72;;;;;;;21.21;57.65;101871.78;5077893;28;20031;-46
2022/07/13 04:08:56;;;;;;;6.55;3.75;;;;;;;21.21;58.09;101866.38;5077515;28;20017;-46
2022/07/13 04:11:22;;;;;;;6.53;3.55;;;;;;;21.19;58.17;101860.31;5058854;28;20077;-46
2022/07/13 04:13:47;;;;;;;5.43;3.43;;;;;;;21.18;57.97;101861.34;5075706;28;20059;-46
2022/07/13 04:16:12;;;;;;;6.78;3.42;;;;;;;21.18;58.59;101861.34;5075508;28;20281;-46
2022/07/13 04:18:37;;;;;;;7.47;3.80;;;;;;;21.20;57.84;101856.63;5075652;28;20033;-46
2022/07/13 04:21:03;;;;;;;5.50;3.17;;;;;;;21.18;58.11;101853.22;5057900;28;20795;-49
2022/07/13 04:23:30;;;;;;;5.65;3.53;;;;;;;21.19;57.57;101854.91;5076710;28;20310;-48
2022/07/13 04:25:56;;;;;;;8.82;3.70;;;;;;;21.18;57.97;101846.97;5043208;28;20099;-48
2022/07/13 04:28:22;;;;;;;6.45;2.95;;;;;;;21.20;57.85;101850.34;5074727;28;20021;-46
2022/07/13 04:30:47;;;;;;;6.40;3.42;;;;;;;21.20;57.75;101836.84;5074052;28;20036;-46
2022/07/13 04:33:12;;;;;;;7.05;3.70;;;;;;;21.21;57.75;101835.84;5074356;28;20042;-46
2022/07/13 04:35:38;;;;;;;8.00;3.10;;;;;;;21.22;57.87;101838.38;5074626;28;20040;-47
2022/07/13 04:38:03;;;;;;;5.30;3.60;;;;;;;21.25;57.31;101840.75;5075277;28;20271;-46
2022/07/13 04:40:28;;;;;;;7.38;3.58;;;;;;;21.26;57.65;101836.19;5074653;28;20301;-46
2022/07/13 04:42:54;;;;;;;8.02;3.50;;;;;;;21.28;57.33;101836.88;5074197;28;20068;-47
2022/07/13 04:45:19;;;;;;;5.07;3.20;;;;;;;21.30;57.65;101836.69;5074837;28;20020;-47
2022/07/13 04:47:45;;;;;;;8.82;3.40;;;;;;;21.33;57.67;101844.47;5074776;28;20021;-46
2022/07/13 04:50:11;;;;;;;5.75;3.20;;;;;;;21.36;57.72;101844.16;5074501;28;20542;-46
2022/07/13 04:52:36;;;;;;;5.53;3.08;;;;;;;21.36;57.07;101841.47;5074342;28;20056;-46
2022/07/13 04:55:02;;;;;;;5.55;3.33;;;;;;;21.38;57.43;101837.59;5073082;28;20021;-46
2022/07/13 04:57:29;;;;;;;3.83;3.28;;;;;;;21.40;57.78;101834.69;5073574;28;20056;-46
2022/07/13 04:59:54;;;;;;;8.35;3.55;;;;;;;21.40;57.61;101840.09;5057949;28;20036;-47
2022/07/13 05:02:19;;;;;;;6.65;3.20;;;;;;;21.44;56.91;101836.06;5073643;28;20020;-46
2022/07/13 05:04:45;;;;;;;5.73;3.37;;;;;;;21.48;57.74;101837.47;5076627;28;20035;-46
2022/07/13 05:07:10;;;;;;;8.45;3.83;;;;;;;21.50;57.26;101834.59;5076720;28;20297;-45
2022/07/13 05:09:35;;;;;;;5.32;3.08;;;;;;;21.51;57.21;101833.59;5059363;28;20036;-46
2022/07/13 05:12:01;;;;;;;5.50;3.03;;;;;;;21.52;57.32;101838.00;5077827;28;20508;-46
2022/07/13 05:14:26;;;;;;;5.30;3.30;;;;;;;21.56;56.38;101834.78;5078755;28;20024;-46
2022/07/13 05:16:51;;;;;;;5.27;2.87;;;;;;;21.59;56.95;101839.84;5072127;28;20851;-47
2022/07/13 05:19:16;;;;;;;3.50;2.90;;;;;;;21.63;56.95;101834.94;5075575;28;20290;-47
2022/07/13 05:21:42;;;;;;;4.78;2.85;;;;;;;21.67;57.14;101835.50;5076956;28;20390;-45
2022/07/13 05:24:07;;;;;;;4.15;3.10;;;;;;;21.73;56.40;101829.41;5078998;28;20032;-46
2022/07/13 05:26:33;;;;;;;4.47;3.08;;;;;;;21.77;56.51;101830.78;5078111;28;20033;-46
2022/07/13 05:28:58;;;;;;;4.97;3.10;;;;;;;21.77;56.82;101826.19;5063035;28;20444;-47
2022/07/13 05:31:23;;;;;;;4.53;3.03;;;;;;;21.82;55.96;101831.09;5082140;28;20286;-46
2022/07/13 05:33:48;;;;;;;5.07;3.10;;;;;;;21.83;55.86;101830.06;5081913;28;20322;-47
2022/07/13 05:36:14;;;;;;;8.70;3.30;;;;;;;21.83;55.62;101840.91;5069083;28;20302;-46
2022/07/13 05:38:39;;;;;;;7.50;3.00;;;;;;;21.84;56.45;101847.16;5080596;28;20350;-45
2022/07/13 05:41:04;;;;;;;9.97;3.30;;;;;;;21.87;55.42;101844.13;5079033;28;20036;-47
2022/07/13 05:43:29;;;;;;;5.97;2.85;;;;;;;21.89;55.20;101837.53;5071416;28;20655;-46
2022/07/13 05:45:56;;;;;;;5.07;3.50;;;;;;;21.90;56.00;101844.63;5079481;28;20021;-46
2022/07/13 05:48:21;;;;;;;6.65;3.15;;;;;;;21.93;55.54;101855.13;5079153;28;20303;-45
2022/07/13 05:50:46;;;;;;;6.10;3.23;;;;;;;21.97;55.85;101855.63;5081379;28;20028;-49
2022/07/13 05:53:12;;;;;;;5.15;2.95;;;;;;;21.99;54.89;101850.88;5075527;28;20820;-46
2022/07/13 05:55:37;;;;;;;5.38;2.92;;;;;;;22.04;56.25;101855.81;5077617;28;20604;-47
2022/07/13 05:58:02;;;;;;;4.03;2.50;;;;;;;22.12;55.59;101855.81;5077180;28;20021;-46
2022/07/13 06:00:28;;;;;;;5.25;2.92;;;;;;;22.16;55.58;101854.44;5068592;28;20302;-48
2022/07/13 06:02:53;;;;;;;3.78;2.58;;;;;;;22.22;55.80;101867.31;5048601;28;20044;-46
2022/07/13 06:05:19;;;;;;;9.05;2.90;;;;;;;22.24;54.89;101859.00;5075403;28;20034;-46
2022/07/13 06:07:45;;;;;;;3.10;2.80;;;;;;;22.25;55.43;101864.25;5072934;28;20037;-47
2022/07/13 06:10:11;;;;;;;4.30;2.90;;;;;;;22.30;55.64;101856.50;5063561;28;20035;-47
2022/07/13 06:12:37;;;;;;;4.97;3.03;;;;;;;22.30;54.85;101861.91;5040120;28;20037;-48
2022/07/13 06:15:02;;;;;;;3.45;2.85;;;;;;;22.34;55.28;101854.28;5050864;28;20029;-48
2022/07/13 06:17:28;;;;;;;5.40;3.08;;;;;;;22.40;55.37;101864.44;5062694;28;20032;-47
2022/07/13 06:19:53;;;;;;;5.13;2.93;;;;;;;22.42;54.99;101864.28;5075181;28;20398;-46
2022/07/13 06:22:18;;;;;;;3.55;2.60;;;;;;;22.47;55.69;101860.03;5070486;28;20301;-48
2022/07/13 06:24:44;;;;;;;3.83;3.30;;;;;;;22.53;55.91;101856.66;5068636;28;20462;-50
2022/07/13 06:27:10;;;;;;;4.20;2.53;;;;;;;22.61;56.36;101854.94;5058269;28;20368;-46
2022/07/13 06:29:35;;;;;;;6.20;2.90;;;;;;;22.64;55.25;101854.59;5070163;28;20307;-45
2022/07/13 06:32:00;;;;;;;5.50;3.15;;;;;;;22.73;54.68;101857.13;5065949;28;20017;-44
2022/07/13 06:34:26;;;;;;;8.73;2.90;;;;;;;22.80;54.99;101849.13;5067058;28;20541;-44
2022/07/13 06:36:51;;;;;;;7.13;2.97;;;;;;;22.91;54.01;101856.03;5070873;28;20293;-44
2022/07/13 06:39:17;;;;;;;7.28;2.92;;;;;;;22.96;54.65;101848.22;5076845;28;20283;-44
2022/07/13 06:41:42;;;;;;;5.00;2.90;;;;;;;22.98;53.99;101853.47;5074213;28;20052;-44
2022/07/13 06:44:07;;;;;;;7.22;2.70;;;;;;;23.05;54.23;101855.31;5073586;28;20024;-44
2022/07/13 06:46:33;;;;;;;9.50;2.80;;;;;;;23.08;54.31;101857.72;5057054;28;20032;-44
2022/07/13 06:48:58;;;;;;;8.02;3.28;;;;;;;23.15;54.47;101857.84;5075532;28;20036;-45
2022/07/13 06:51:23;;;;;;;5.90;3.10;;;;;;;23.22;53.93;101849.84;5075142;28;20052;-46
2022/07/13 06:53:49;;;;;;;9.18;3.00;;;;;;;23.53;53.58;101846.28;5075407;28;20377;-44
2022/07/13 06:56:14;;;;;;;5.05;2.70;;;;;;;23.80;53.89;101842.22;5076223;28;20024;-44
2022/07/13 06:58:40;;;;;;;8.27;3.30;;;;;;;24.01;52.65;101846.97;5073640;28;20316;-44
2022/07/13 07:01:05;;;;;;;7.17;3.30;;;;;;;24.07;53.58;101843.56;5054801;28;20050;-44
2022/07/13 07:03:30;;;;;;;7.15;3.35;;;;;;;24.16;52.74;101847.91;5075343;28;20301;-45
2022/07/13 07:05:56;;;;;;;4.53;2.87;;;;;;;24.15;54.06;101854.34;5075835;28;20394;-45
2022/07/13 07:08:22;;;;;;;5.80;3.40;;;;;;;24.17;53.77;101854.16;5079763;28;20331;-46
2022/07/13 07:10:47;;;;;;;7.78;3.80;;;;;;;24.15;52.20;101859.78;5070318;28;20039;-46
2022/07/13 07:13:14;;;;;;;8.18;3.60;;;;;;;24.28;53.00;101866.44;5089072;28;20016;-46
2022/07/13 07:15:39;;;;;;;5.95;3.95;;;;;;;24.25;53.35;101859.53;5085016;28;20029;-46
2022/07/13 07:18:05;;;;;;;7.82;3.90;;;;;;;24.34;52.92;101868.44;5088053;28;20044;-45
2022/07/13 07:20:30;;;;;;;10.45;4.18;;;;;;;24.32;53.45;101862.34;5086550;28;20103;-45
2022/07/13 07:22:56;;;;;;;7.00;4.05;;;;;;;24.73;52.57;101868.25;5088542;28;20029;-45
2022/07/13 07:25:21;;;;;;;8.23;3.90;;;;;;;25.04;52.30;101855.47;5080365;28;20136;-45
2022/07/13 07:27:47;;;;;;;6.20;4.00;;;;;;;25.13;53.20;101854.34;5083506;28;20508;-47
2022/07/13 07:30:12;;;;;;;7.05;4.20;;;;;;;25.24;51.89;101851.13;5086759;28;20031;-45
2022/07/13 07:32:41;;;;;;;6.63;4.13;;;;;;;25.35;51.90;101848.97;5090704;28;20028;-47
2022/07/13 07:35:07;;;;;;;;;;;;;;;25.52;52.15;101853.16;5073233;28;20032;-45
2022/07/13 07:37:33;;;;;;;9.73;4.47;;;;;;;25.55;50.87;101847.34;5088390;28;19916;-47
2022/07/13 07:39:59;;;;;;;5.07;4.57;;;;;;;25.56;50.71;101850.91;5089953;28;20044;-46
2022/07/13 07:42:25;;;;;;;6.60;4.47;;;;;;;25.54;52.56;101845.66;5089548;28;20017;-46
2022/07/13 07:44:50;;;;;;;9.52;4.55;;;;;;;25.70;51.24;101846.44;5081240;28;20032;-45
2022/07/13 07:47:16;;;;;;;7.05;4.57;;;;;;;25.80;51.35;101846.97;5086997;28;20082;-46
2022/07/13 07:49:41;;;;;;;7.63;4.88;;;;;;;25.76;51.44;101851.09;5068691;28;20036;-45
2022/07/13 07:52:06;;;;;;;9.10;4.47;;;;;;;25.89;51.80;101851.22;5081162;28;20037;-46
2022/07/13 07:54:32;;;;;;;6.95;4.75;;;;;;;25.95;50.56;101845.06;5087145;28;20035;-45
2022/07/13 07:56:57;;;;;;;8.77;4.30;;;;;;;26.09;50.57;101835.09;5094856;28;20025;-45
2022/07/13 07:59:22;;;;;;;10.90;4.87;;;;;;;26.19;50.22;101840.22;5086822;28;20290;-45
2022/07/13 08:01:47;;;;;;;8.73;4.60;;;;;;;26.18;50.99;101839.38;5070853;28;20282;-45
2022/07/13 08:04:13;;;;;;;6.10;4.43;;;;;;;26.24;51.26;101839.63;5094047;28;20274;-45
2022/07/13 08:06:38;;;;;;;9.88;4.40;;;;;;;26.39;50.91;101837.66;5094775;28;20283;-45
2022/07/13 08:09:05;;;;;;;10.52;4.90;;;;;;;26.45;50.50;101845.03;5080700;28;20028;-45
2022/07/13 08:11:30;;;;;;;8.75;5.05;;;;;;;26.62;49.67;101839.28;5094938;28;20025;-45
2022/07/13 08:13:55;;;;;;;6.28;4.43;;;;;;;26.70;50.37;101841.88;5094118;28;20032;-45
2022/07/13 08:16:21;;;;;;;6.00;4.25;;;;;;;26.75;50.04;101844.84;5094033;28;20056;-45
2022/07/13 08:18:46;;;;;;;7.53;4.38;;;;;;;26.86;50.44;101847.00;5093086;28;20051;-47
2022/07/13 08:21:12;;;;;;;7.25;4.57;;;;;;;27.09;49.59;101848.56;5093190;28;20548;-45
2022/07/13 08:23:51;;;;;;;8.27;4.28;;;;;;;27.22;50.95;101847.78;5092422;28;20028;-45
2022/07/13 08:26:17;;;;;;;7.72;4.55;;;;;;;27.27;48.78;101856.19;5074312;28;20016;-45
2022/07/13 08:28:43;;;;;;;9.48;4.07;;;;;;;27.42;49.07;101854.16;5090020;28;20021;-44
2022/07/13 08:31:08;;;;;;;7.20;3.67;;;;;;;27.51;50.21;101852.09;5092015;28;20025;-47
2022/07/13 08:39:02;;;;;;;10.15;4.20;;;;;;;27.68;49.22;101850.69;5090051;28;20040;-45
2022/07/13 08:41:28;;;;;;;7.68;4.20;;;;;;;27.83;47.66;101846.94;5091049;28;20032;-46
2022/07/13 08:43:54;;;;;;;9.48;4.22;;;;;;;27.98;48.49;101858.50;5092670;28;20028;-45
2022/07/13 08:46:21;;;;;;;5.13;3.38;;;;;;;28.11;48.54;101860.41;5071272;28;20525;-47
2022/07/13 08:48:49;;;;;;;6.65;3.15;;;;;;;28.30;47.90;101863.34;5094866;28;20032;-45
2022/07/13 08:51:17;;;;;;;4.43;3.80;;;;;;;28.30;47.51;101855.16;5093465;28;20020;-45
2022/07/13 08:53:43;;;;;;;5.13;3.60;;;;;;;28.31;47.08;101859.56;5093357;28;20036;-46
2022/07/13 08:56:09;;;;;;;7.22;4.00;;;;;;;28.39;46.58;101853.88;5095665;28;20079;-49
2022/07/13 08:58:36;;;;;;;5.32;3.28;;;;;;;28.44;46.95;101856.81;5080245;28;20040;-48
2022/07/13 09:01:01;;;;;;;12.07;3.70;;;;;;;28.37;46.58;101861.44;5084448;28;20029;-45
2022/07/13 09:03:26;;;;;;;9.00;3.22;;;;;;;28.63;47.25;101867.94;5098716;28;20086;-45
2022/07/13 09:05:52;;;;;;;6.87;3.20;;;;;;;28.56;48.08;101866.09;5097037;28;20050;-46
2022/07/13 09:08:19;;;;;;;8.33;3.13;;;;;;;28.67;46.24;101870.06;5099171;28;20286;-45
2022/07/13 09:10:59;;;;;;;5.75;3.53;;;;;;;28.73;46.82;101876.56;5095071;28;20275;-47
2022/07/13 09:13:45;;;;;;;8.15;3.78;;;;;;;28.79;46.35;101871.09;5088940;28;20036;-45
2022/07/13 09:16:22;;;;;;;7.43;3.15;;;;;;;28.82;46.40;101871.72;5080993;28;20021;-46
2022/07/13 09:18:56;;;;;;;3.45;3.10;;;;;;;28.88;46.89;101868.97;5098639;28;20039;-45
2022/07/13 09:21:23;;;;;;;7.50;3.10;;;;;;;28.81;44.64;101878.22;5098095;28;20028;-45
2022/07/13 09:24:03;;;;;;;7.03;3.35;;;;;;;28.84;45.34;101875.88;5098066;28;20032;-46
2022/07/13 09:26:46;;;;;;;5.65;3.25;;;;;;;28.84;44.74;101877.78;5078844;28;20008;-45
2022/07/13 09:29:12;;;;;;;6.03;2.88;;;;;;;28.90;44.90;101875.03;5096556;28;20025;-45
2022/07/13 09:31:52;;;;;;;4.85;3.00;;;;;;;28.90;45.56;101872.31;5094983;28;20062;-47
2022/07/13 09:34:18;;;;;;;5.57;3.22;;;;;;;28.82;45.45;101882.66;5079676;28;20080;-49
2022/07/13 09:36:43;;;;;;;4.43;2.90;;;;;;;28.72;44.90;101885.81;5097185;28;20445;-47
2022/07/13 09:39:12;;;;;;;5.83;2.83;;;;;;;28.74;45.14;101889.16;5096242;28;20005;-45
2022/07/13 09:41:37;;;;;;;4.05;2.20;;;;;;;28.86;45.57;101879.28;5093479;28;21102;-47
2022/07/13 09:47:00;;;;;;;5.38;2.70;;;;;;;28.95;44.57;101871.66;5096081;28;20043;-45
2022/07/13 09:49:41;;;;;;;6.00;2.78;;;;;;;28.89;44.34;101867.88;5096282;28;20021;-47
2022/07/13 09:52:11;;;;;;;4.90;2.30;;;;;;;28.97;44.12;101873.13;5093094;28;20045;-45
2022/07/13 09:54:40;;;;;;;3.83;2.83;;;;;;;28.90;45.25;101874.22;5095653;28;20063;-45
2022/07/13 09:57:14;;;;;;;8.60;2.70;;;;;;;28.83;45.25;101874.22;5094809;28;20074;-44
2022/07/13 09:59:41;;;;;;;6.47;2.63;;;;;;;28.86;45.21;101883.88;5088384;28;20093;-45
2022/07/13 10:02:07;;;;;;;4.15;2.63;;;;;;;28.82;43.98;101885.38;5092128;28;20051;-47
2022/07/13 10:04:32;;;;;;;4.00;2.50;;;;;;;28.82;43.44;101880.75;5096822;28;20486;-45
2022/07/13 10:07:02;;;;;;;4.68;2.58;;;;;;;28.93;43.86;101891.03;5095210;28;20402;-45
2022/07/13 10:09:31;;;;;;;2.40;2.20;;;;;;;28.97;43.71;101886.78;5093770;28;20035;-44
2022/07/13 10:12:04;;;;;;;7.35;2.75;;;;;;;28.98;44.87;101884.91;5095682;28;20406;-48
2022/07/13 10:14:30;;;;;;;3.92;2.05;;;;;;;29.16;44.59;101881.47;5097009;28;20055;-47
2022/07/13 10:17:10;;;;;;;3.13;2.15;;;;;;;29.12;43.36;101891.19;5096289;28;20028;-46
2022/07/13 10:19:43;;;;;;;6.50;2.25;;;;;;;29.01;43.03;101886.38;5076388;28;20033;-45
2022/07/13 10:22:30;;;;;;;2.70;2.20;;;;;;;29.16;42.52;101885.06;5091094;28;20084;-45
2022/07/13 10:24:57;;;;;;;3.72;2.38;;;;;;;29.16;41.91;101887.78;5092870;28;20021;-44
2022/07/13 10:27:28;;;;;;;3.25;2.25;;;;;;;29.15;42.34;101890.75;5095501;28;20047;-44
2022/07/13 10:29:55;;;;;;;2.85;2.20;;;;;;;29.04;41.64;101894.97;5097538;28;20084;-45
2022/07/13 10:32:22;;;;;;;8.93;2.53;;;;;;;28.92;41.81;101894.81;5089383;28;20016;-45
2022/07/13 10:34:57;;;;;;;4.60;2.13;;;;;;;28.86;42.44;101900.28;5090129;28;20096;-45
2022/07/13 10:37:24;;;;;;;5.35;2.30;;;;;;;28.94;40.54;101895.44;5098478;28;20009;-44
2022/07/13 10:40:12;;;;;;;7.35;2.60;;;;;;;29.11;42.60;101898.53;5096040;28;20034;-45
2022/07/13 10:43:00;;;;;;;3.38;2.08;;;;;;;29.08;43.12;101904.44;5096762;28;20044;-45
2022/07/13 10:45:31;;;;;;;5.30;2.70;;;;;;;28.98;43.07;101904.91;5094255;28;20017;-47
2022/07/13 10:47:56;;;;;;;4.50;2.50;;;;;;;28.96;41.86;101901.53;5075438;28;20358;-48
2022/07/13 10:50:22;;;;;;;3.30;2.35;;;;;;;29.10;41.26;101906.97;5095922;28;20013;-46
2022/07/13 10:52:48;;;;;;;4.07;2.65;;;;;;;29.44;42.48;101894.84;5093491;28;20033;-45
2022/07/13 10:55:13;;;;;;;5.97;2.28;;;;;;;29.48;41.17;101901.56;5095334;28;20020;-46
2022/07/13 10:57:43;;;;;;;6.28;2.35;;;;;;;29.61;42.39;101897.94;5078496;28;20021;-48
2022/07/13 11:00:19;;;;;;;6.18;2.40;;;;;;;29.67;40.71;101899.78;5078988;28;20029;-48
2022/07/13 11:03:07;;;;;;;6.65;2.50;;;;;;;29.85;41.36;101901.81;5083261;28;20015;-46
2022/07/13 11:05:35;;;;;;;4.35;2.05;;;;;;;29.85;40.84;101909.19;5094528;28;20108;-45
2022/07/13 11:08:15;;;;;;;4.63;2.20;;;;;;;29.68;41.64;101911.59;5075312;28;20037;-48
2022/07/13 11:10:41;;;;;;;4.22;2.28;;;;;;;29.51;41.36;101905.75;5094853;28;20048;-45
2022/07/13 11:13:15;;;;;;;8.63;2.70;;;;;;;29.46;41.96;101911.03;5096061;28;20019;-45
2022/07/13 11:15:48;;;;;;;6.63;2.08;;;;;;;29.42;41.45;101904.34;5077279;28;20054;-46
2022/07/13 11:18:22;;;;;;;6.28;2.10;;;;;;;29.41;41.80;101916.34;5090523;28;20056;-47
2022/07/13 11:21:25;;;;;;;4.22;2.30;;;;;;;29.49;43.15;101916.94;5090832;28;20042;-48
2022/07/13 11:26:52;;;;;;;3.90;2.10;;;;;;;29.83;41.16;101909.41;5092985;28;20036;-45
2022/07/13 11:29:49;;;;;;;5.30;2.20;;;;;;;30.04;41.44;101886.31;5095160;28;20076;-47
2022/07/13 11:32:20;;;;;;;6.07;2.10;;;;;;;30.12;40.47;101896.13;5082183;28;20008;-44
2022/07/13 11:34:46;;;;;;;4.68;2.20;;;;;;;30.04;38.64;101905.50;5071165;28;20001;-48